Welcome to Trans World Virtual Airlines!

Welcome TWVA's Newest Pilot:

TWA2313 Bryan Heald

Not a Trans World pilot yet?
Apply Now!




Sign-in with your pilot id or email, or register

Flight TWA58

  • Submitted By: Austin Hill
  • Departure Airport: New Orleans International Airport (KMSY)
  • Arrival Airport: Lambert-Saint Louis International Airport (KSTL)
  • Aircraft: B737-800 (N4112TW)
  • Flight Time: 02.02
  • Date Submitted: 05/22/2018
  • Route: RQR SQS MEM STL KSTL
  • Status: Accepted
Flight Details
Gross Revenue:
(159 load / $ 265.00 per unit
$ 42, 135.00
Fuel Cost:
(8677 fuel used @ 0.8 / unit)
$ 6, 941.60

Additional Log Information:

View Log

FS[16:37] Aircraft Title - Boeing 737-800
FS[16:37] Aircraft Model - B738
FS[16:37] Flight Number TWA58
FS[16:37] Departure KMSY
FS[16:37] Destination KSTL
FS[16:39] Boarding
FS[16:41] Taxiing to Runway
FS[16:44] Taking Off
FS[16:45] Taking Off
FS[16:45] 171kts
FS[16:45] pitch angle 9 degrees
FS[16:45] 21085 (lbs) of fuel onboard
FS[16:45] Climbing
FS[17:04] TOC Reached
FS[17:04] Cruise 37000
FS[17:40] TOD Reached
FS[17:40] Descending
FS[18:16] On Approach
FS[18:22] Landing Rate -150fpm
FS[18:22] 13293 (lbs) of fuel onboard
FS[18:22] pitch angle 6 degrees
FS[18:22] Taxiing to Gate
FS[18:28] Arrived
FS[18:36] Max Sim Rate: 1x
FS[18:36] kACARS_Free Version 1.0.1.1

Comments

Commenter Comment
Austin Hill KMSY 221629Z 03004KT 10SM SCT036 SCT100 30/23 A3004 // KSTL 221958Z 31007KT 10SM FEW030 27/18 A3007

Route Map